createdAt,value
2017-12-24T00:02:04.902Z,90.42
2017-12-24T00:04:30.674Z,90.69
2017-12-24T00:06:56.483Z,90.65
2017-12-24T00:09:22.310Z,90.58
2017-12-24T00:11:48.126Z,90.57
2017-12-24T00:14:13.942Z,90.76
2017-12-24T00:16:39.720Z,90.48
2017-12-24T00:19:05.493Z,90.43
2017-12-24T00:21:31.294Z,90.23
2017-12-24T00:23:57.061Z,90.24
2017-12-24T00:26:22.834Z,90.13
2017-12-24T00:28:48.640Z,90.46
2017-12-24T00:31:14.419Z,89.62
2017-12-24T00:33:40.206Z,90.04
2017-12-24T00:36:05.975Z,89.92
2017-12-24T00:38:31.749Z,89.84
2017-12-24T00:40:58.969Z,89.69
2017-12-24T00:43:24.747Z,89.96
2017-12-24T00:45:50.528Z,89.90
2017-12-24T00:48:16.318Z,90.45
2017-12-24T00:50:42.092Z,90.85
2017-12-24T00:53:07.872Z,90.98
2017-12-24T00:55:33.834Z,91.20
2017-12-24T00:57:59.611Z,91.41
2017-12-24T01:00:25.406Z,91.02
2017-12-24T01:02:51.399Z,90.89
2017-12-24T01:05:17.186Z,91.06
2017-12-24T01:07:42.970Z,91.44
2017-12-24T01:10:08.758Z,91.61
2017-12-24T01:12:34.558Z,92.00
2017-12-24T01:15:00.325Z,91.38
2017-12-24T01:17:26.113Z,91.85
2017-12-24T01:19:51.890Z,91.77
2017-12-24T01:22:17.692Z,91.26
2017-12-24T01:24:43.858Z,90.98
2017-12-24T01:27:09.638Z,90.96
2017-12-24T01:29:35.414Z,90.63
2017-12-24T01:32:01.202Z,90.62
2017-12-24T01:34:26.972Z,90.35
2017-12-24T01:36:52.746Z,90.02
2017-12-24T01:39:18.520Z,89.76
2017-12-24T01:41:44.322Z,89.91
2017-12-24T01:44:10.108Z,89.91
2017-12-24T01:46:35.892Z,89.87
2017-12-24T01:49:01.752Z,91.41
2017-12-24T01:51:27.478Z,92.63
2017-12-24T01:53:53.479Z,92.98
2017-12-24T01:56:19.294Z,93.13
2017-12-24T01:58:45.084Z,92.79
2017-12-24T02:01:10.870Z,92.69
2017-12-24T02:03:37.572Z,93.36
2017-12-24T02:06:03.353Z,93.62
2017-12-24T02:08:29.128Z,94.34
2017-12-24T02:10:55.093Z,94.68
2017-12-24T02:13:20.874Z,95.25
2017-12-24T02:15:46.674Z,95.87
2017-12-24T02:18:12.468Z,96.01
2017-12-24T02:20:38.262Z,96.19
2017-12-24T02:23:04.051Z,96.61
2017-12-24T02:25:29.846Z,96.60
2017-12-24T02:27:55.623Z,96.86
2017-12-24T02:30:21.397Z,96.99
2017-12-24T02:32:47.191Z,96.89
2017-12-24T02:35:12.970Z,97.02
2017-12-24T02:37:38.752Z,97.17
2017-12-24T02:40:04.539Z,97.11
2017-12-24T02:42:30.334Z,97.12
2017-12-24T02:44:56.143Z,97.13
2017-12-24T02:47:21.925Z,97.36
2017-12-24T02:49:47.747Z,97.35
2017-12-24T02:52:13.542Z,97.50
2017-12-24T02:54:39.313Z,97.50
2017-12-24T02:57:05.105Z,97.48
2017-12-24T02:59:30.870Z,97.26
2017-12-24T03:01:56.646Z,97.43
2017-12-24T03:04:22.714Z,97.50
2017-12-24T03:06:48.527Z,97.65
2017-12-24T03:09:14.307Z,97.50
2017-12-24T03:11:40.091Z,97.71
2017-12-24T03:14:05.896Z,97.76
2017-12-24T03:16:31.670Z,97.74
2017-12-24T03:18:57.451Z,97.86
2017-12-24T03:21:23.234Z,97.99
2017-12-24T03:23:49.023Z,98.01
2017-12-24T03:26:14.808Z,97.88
2017-12-24T03:28:40.794Z,97.86
2017-12-24T03:31:06.596Z,98.11
2017-12-24T03:33:32.386Z,97.73
2017-12-24T03:35:58.190Z,97.83
2017-12-24T03:38:23.980Z,97.98
2017-12-24T03:40:49.749Z,98.03
2017-12-24T03:43:15.523Z,97.96
2017-12-24T03:45:41.287Z,98.02
2017-12-24T03:48:07.066Z,98.00
2017-12-24T03:50:32.853Z,98.08
2017-12-24T03:52:58.646Z,98.08
2017-12-24T03:55:24.595Z,98.04
2017-12-24T03:57:50.382Z,98.19
2017-12-24T04:00:16.183Z,98.02
2017-12-24T04:02:41.980Z,98.07
2017-12-24T04:05:07.753Z,98.08
2017-12-24T04:07:33.526Z,98.13
2017-12-24T04:09:59.317Z,98.26
2017-12-24T04:12:25.093Z,98.30
2017-12-24T04:14:50.867Z,98.18
2017-12-24T04:17:16.655Z,98.16
2017-12-24T04:19:42.435Z,98.27
2017-12-24T04:22:08.204Z,98.16
2017-12-24T04:24:34.212Z,97.96
2017-12-24T04:27:00.015Z,97.99
2017-12-24T04:29:25.787Z,98.14
2017-12-24T04:31:51.569Z,98.06
2017-12-24T04:34:17.353Z,98.13
2017-12-24T04:36:43.158Z,98.17
2017-12-24T04:39:08.935Z,98.17
2017-12-24T04:41:34.702Z,98.16
2017-12-24T04:44:00.514Z,98.19
2017-12-24T04:46:26.286Z,98.20
2017-12-24T04:48:52.050Z,98.20
2017-12-24T04:51:18.002Z,98.02
2017-12-24T04:53:43.783Z,97.98
2017-12-24T04:56:09.568Z,98.07
2017-12-24T04:58:35.378Z,98.09
2017-12-24T05:01:01.680Z,98.05
2017-12-24T05:03:27.516Z,98.23
2017-12-24T05:05:53.353Z,98.25
2017-12-24T05:08:19.158Z,98.35
2017-12-24T05:10:44.935Z,98.48
2017-12-24T05:13:10.713Z,98.50
2017-12-24T05:15:36.517Z,98.37
2017-12-24T05:18:02.287Z,98.54
2017-12-24T05:20:28.059Z,98.55
2017-12-24T05:22:53.886Z,98.59
2017-12-24T05:25:19.654Z,98.64
2017-12-24T05:27:45.427Z,98.47
2017-12-24T05:30:11.233Z,98.58
2017-12-24T05:32:37.011Z,98.61
2017-12-24T05:35:02.794Z,98.68
2017-12-24T05:37:28.598Z,98.71
2017-12-24T05:39:54.370Z,98.69
2017-12-24T05:42:20.158Z,98.68
2017-12-24T05:44:45.950Z,98.64
2017-12-24T05:47:11.718Z,98.72
2017-12-24T05:49:37.497Z,98.71
2017-12-24T05:52:03.290Z,98.68
2017-12-24T05:54:29.066Z,98.78
2017-12-24T05:56:54.836Z,98.60
2017-12-24T05:59:20.668Z,98.60
2017-12-24T06:01:46.451Z,98.60
2017-12-24T06:04:12.236Z,98.59
2017-12-24T06:06:38.021Z,98.75
2017-12-24T06:09:04.187Z,98.68
2017-12-24T06:11:29.975Z,98.76
2017-12-24T06:13:55.770Z,98.77
2017-12-24T06:16:21.575Z,98.68
2017-12-24T06:18:47.366Z,98.71
2017-12-24T06:21:13.147Z,98.82
2017-12-24T06:23:38.943Z,98.65
2017-12-24T06:26:04.732Z,98.57
2017-12-24T06:28:30.514Z,98.55
2017-12-24T06:30:56.318Z,98.57
2017-12-24T06:33:22.094Z,98.59
2017-12-24T06:35:47.879Z,98.55
2017-12-24T06:38:13.662Z,98.51
2017-12-24T06:40:39.442Z,98.57
2017-12-24T06:43:05.216Z,98.59
2017-12-24T06:45:31.264Z,98.68
2017-12-24T06:47:57.042Z,98.58
2017-12-24T06:50:22.812Z,98.54
2017-12-24T06:52:48.583Z,98.57
2017-12-24T06:55:14.350Z,98.63
2017-12-24T06:57:40.388Z,98.61
2017-12-24T07:00:06.190Z,98.63
2017-12-24T07:02:31.978Z,98.54
2017-12-24T07:04:57.794Z,98.55
2017-12-24T07:07:23.567Z,98.58
2017-12-24T07:09:49.349Z,98.64
2017-12-24T07:12:15.174Z,98.72
2017-12-24T07:14:40.945Z,98.78
2017-12-24T07:17:06.719Z,98.50
2017-12-24T07:19:32.540Z,98.65
2017-12-24T07:21:58.322Z,98.60
2017-12-24T07:24:24.086Z,98.62
2017-12-24T07:26:49.915Z,98.71
2017-12-24T07:29:15.704Z,98.60
2017-12-24T07:31:41.514Z,98.49
2017-12-24T07:34:07.305Z,98.51
2017-12-24T07:36:33.093Z,98.57
2017-12-24T07:38:58.882Z,98.49
2017-12-24T07:41:24.666Z,98.80
2017-12-24T07:43:50.459Z,98.74
2017-12-24T07:46:16.267Z,98.64
2017-12-24T07:48:42.059Z,98.67
2017-12-24T07:51:07.830Z,98.66
2017-12-24T07:53:33.620Z,98.55
2017-12-24T07:55:59.404Z,98.59
2017-12-24T07:58:25.182Z,98.56
2017-12-24T08:00:50.978Z,98.58
2017-12-24T08:03:16.923Z,98.62
2017-12-24T08:05:42.724Z,98.59
2017-12-24T08:08:08.537Z,98.49
2017-12-24T08:10:34.324Z,98.32
2017-12-24T08:13:00.102Z,98.32
2017-12-24T08:15:25.882Z,98.34
2017-12-24T08:17:51.659Z,98.12
2017-12-24T08:20:17.470Z,98.19
2017-12-24T08:22:43.250Z,98.26
2017-12-24T08:25:09.031Z,98.24
2017-12-24T08:27:34.842Z,98.21
2017-12-24T08:30:00.616Z,98.09
2017-12-24T08:32:26.414Z,98.16
2017-12-24T08:34:52.231Z,98.05
2017-12-24T08:37:18.034Z,98.09
2017-12-24T08:39:43.818Z,98.14
2017-12-24T08:42:09.605Z,98.17
2017-12-24T08:44:35.370Z,98.18
2017-12-24T08:47:01.138Z,98.38
2017-12-24T08:49:26.913Z,98.24
2017-12-24T08:51:52.683Z,98.51
2017-12-24T08:54:18.494Z,98.49
2017-12-24T08:56:44.277Z,98.43
2017-12-24T08:59:10.071Z,98.47
2017-12-24T09:01:35.871Z,98.50
2017-12-24T09:04:01.688Z,98.68
2017-12-24T09:06:27.464Z,98.53
2017-12-24T09:08:53.251Z,98.45
2017-12-24T09:11:19.059Z,98.59
2017-12-24T09:13:44.858Z,98.64
2017-12-24T09:16:10.679Z,98.61
2017-12-24T09:18:36.446Z,98.55
2017-12-24T09:21:02.230Z,98.76
2017-12-24T09:23:28.033Z,98.82
2017-12-24T09:25:53.822Z,98.79
2017-12-24T09:28:19.606Z,98.77
2017-12-24T09:30:45.446Z,98.74
2017-12-24T09:33:11.240Z,98.87
2017-12-24T09:35:37.020Z,98.82
2017-12-24T09:38:02.815Z,98.90
2017-12-24T09:40:28.603Z,98.73
2017-12-24T09:42:54.389Z,98.74
2017-12-24T09:45:27.360Z,98.65
2017-12-24T09:47:53.150Z,98.71
2017-12-24T09:50:18.936Z,98.64
2017-12-24T09:52:44.731Z,98.74
2017-12-24T09:55:10.507Z,98.63
2017-12-24T09:57:36.291Z,98.57
2017-12-24T10:00:02.099Z,98.45
2017-12-24T10:02:27.886Z,98.45
2017-12-24T10:04:53.688Z,98.45
2017-12-24T10:07:20.638Z,98.50
2017-12-24T10:09:46.452Z,98.47
2017-12-24T10:12:12.247Z,98.44
2017-12-24T10:14:38.398Z,98.34
2017-12-24T10:17:04.191Z,98.46
2017-12-24T10:19:29.972Z,98.67
2017-12-24T10:21:55.762Z,98.59
2017-12-24T10:24:21.534Z,98.49
2017-12-24T10:26:47.347Z,98.38
2017-12-24T10:29:13.124Z,98.45
2017-12-24T10:31:38.918Z,98.60
2017-12-24T10:34:04.726Z,98.50
2017-12-24T10:36:30.519Z,98.45
2017-12-24T10:38:56.303Z,98.64
2017-12-24T10:41:22.134Z,98.78
2017-12-24T10:43:48.936Z,98.50
2017-12-24T10:46:15.985Z,98.44
2017-12-24T10:48:42.006Z,98.42
2017-12-24T10:51:08.777Z,98.33
2017-12-24T10:53:35.622Z,98.40
2017-12-24T10:56:01.506Z,98.35
2017-12-24T10:58:28.179Z,98.37
2017-12-24T11:00:54.338Z,98.44
2017-12-24T11:03:20.249Z,98.50
2017-12-24T11:05:46.225Z,98.56
2017-12-24T11:08:12.194Z,98.39
2017-12-24T11:10:38.015Z,98.54
2017-12-24T11:13:03.799Z,98.57
2017-12-24T11:15:29.599Z,98.64
2017-12-24T11:17:55.673Z,98.66
2017-12-24T11:20:21.484Z,98.50
2017-12-24T11:22:47.651Z,98.60
2017-12-24T11:25:13.674Z,98.63
2017-12-24T11:27:39.758Z,98.54
2017-12-24T11:32:38.122Z,98.28
2017-12-24T11:35:03.926Z,98.32
2017-12-24T11:37:29.724Z,98.31
2017-12-24T11:39:55.514Z,98.16
2017-12-24T11:42:21.523Z,98.23
2017-12-24T11:44:47.412Z,98.18
2017-12-24T11:47:13.246Z,98.04
2017-12-24T11:49:39.143Z,98.15
2017-12-24T11:52:04.985Z,98.12
2017-12-24T11:54:31.256Z,98.07
2017-12-24T11:56:57.073Z,98.11
2017-12-24T11:59:22.951Z,98.04
2017-12-24T12:01:49.110Z,97.78
2017-12-24T12:04:14.954Z,98.08
2017-12-24T12:06:40.774Z,97.81
2017-12-24T12:09:06.606Z,97.65
2017-12-24T12:11:32.742Z,97.48
2017-12-24T12:13:58.823Z,97.46
2017-12-24T12:16:24.687Z,97.66
2017-12-24T12:18:50.874Z,97.51
2017-12-24T12:21:16.683Z,97.35
2017-12-24T12:23:42.539Z,97.49
2017-12-24T12:26:08.342Z,97.35
2017-12-24T12:28:34.173Z,97.21
2017-12-24T12:31:00.616Z,97.11
2017-12-24T12:33:26.507Z,96.92
2017-12-24T12:35:52.733Z,97.00
2017-12-24T12:38:19.367Z,96.84
2017-12-24T12:40:45.224Z,97.03
2017-12-24T12:43:11.788Z,96.44
2017-12-24T12:45:38.796Z,96.63
2017-12-24T12:48:06.665Z,96.46
2017-12-24T12:50:32.515Z,96.65
2017-12-24T12:52:58.335Z,96.75
2017-12-24T12:55:24.133Z,96.88
2017-12-24T12:57:49.895Z,96.89
2017-12-24T13:00:15.711Z,97.07
2017-12-24T13:02:41.493Z,97.33
2017-12-24T13:05:07.269Z,97.07
2017-12-24T13:07:33.063Z,96.76
2017-12-24T13:09:58.870Z,96.98
2017-12-24T13:12:24.647Z,97.09
2017-12-24T13:14:50.444Z,96.81
2017-12-24T13:17:16.231Z,97.11
2017-12-24T13:19:42.015Z,97.06
2017-12-24T13:22:07.814Z,97.11
2017-12-24T13:24:33.701Z,97.06
2017-12-24T13:26:59.492Z,96.97
2017-12-24T13:29:25.295Z,96.96
2017-12-24T13:31:51.084Z,97.15
2017-12-24T13:34:17.165Z,97.10
2017-12-24T13:36:42.979Z,97.12
2017-12-24T13:39:08.757Z,97.06
2017-12-24T13:41:34.569Z,97.21
2017-12-24T13:44:00.621Z,97.28
2017-12-24T13:46:26.418Z,97.36
2017-12-24T13:48:52.220Z,97.27
2017-12-24T13:51:18.017Z,97.51
2017-12-24T13:53:43.787Z,97.72
2017-12-24T13:56:09.598Z,97.12
2017-12-24T13:58:35.383Z,97.94
2017-12-24T14:01:01.220Z,97.40
2017-12-24T14:03:27.070Z,97.41
2017-12-24T14:05:52.888Z,97.12
2017-12-24T14:08:19.104Z,97.06
2017-12-24T14:10:45.081Z,97.27
2017-12-24T14:13:10.895Z,97.21
2017-12-24T14:15:36.995Z,96.98
2017-12-24T14:18:03.100Z,97.23
2017-12-24T14:20:29.112Z,97.03
2017-12-24T14:22:54.916Z,96.88
2017-12-24T14:25:20.687Z,96.86
2017-12-24T14:27:46.511Z,96.84
2017-12-24T14:30:12.418Z,96.88
2017-12-24T14:32:38.200Z,96.49
2017-12-24T14:35:04.002Z,96.73
2017-12-24T14:37:29.794Z,96.18
2017-12-24T14:39:55.735Z,96.67
2017-12-24T14:42:21.521Z,96.01
2017-12-24T14:44:47.543Z,96.42
2017-12-24T14:47:13.562Z,96.39
2017-12-24T14:49:39.333Z,96.46
2017-12-24T14:52:05.115Z,96.21
2017-12-24T14:54:31.432Z,96.12
2017-12-24T14:56:57.230Z,95.99
2017-12-24T14:59:23.007Z,96.05
2017-12-24T15:01:48.930Z,95.48
2017-12-24T15:04:14.750Z,95.97
2017-12-24T15:06:40.775Z,95.71
2017-12-24T15:09:06.571Z,95.75
2017-12-24T15:11:32.695Z,95.42
2017-12-24T15:13:58.493Z,96.16
2017-12-24T15:16:24.278Z,95.63
2017-12-24T15:18:50.053Z,95.74
2017-12-24T15:21:16.047Z,95.50
2017-12-24T15:23:41.834Z,95.62
2017-12-24T15:26:07.675Z,95.27
2017-12-24T15:28:33.495Z,95.19
2017-12-24T15:30:59.595Z,94.96
2017-12-24T15:33:25.412Z,95.17
2017-12-24T15:35:51.220Z,95.17
2017-12-24T15:38:17.018Z,95.31
2017-12-24T15:40:42.801Z,95.29
2017-12-24T15:43:08.610Z,95.39
2017-12-24T15:45:34.407Z,95.33
2017-12-24T15:48:00.179Z,95.11
2017-12-24T15:50:25.982Z,95.18
2017-12-24T15:52:51.754Z,95.25
2017-12-24T15:55:17.562Z,94.98
2017-12-24T15:57:43.343Z,95.09
2017-12-24T16:00:09.131Z,95.11
2017-12-24T16:02:34.942Z,95.12
2017-12-24T16:05:00.724Z,94.94
2017-12-24T16:07:26.506Z,95.20
2017-12-24T16:09:52.559Z,95.10
2017-12-24T16:12:18.366Z,95.14
2017-12-24T16:14:44.206Z,94.65
2017-12-24T16:17:09.967Z,94.62
2017-12-24T16:19:35.750Z,93.71
2017-12-24T16:22:01.528Z,93.80
2017-12-24T16:24:27.559Z,93.84
2017-12-24T16:26:53.331Z,93.69
2017-12-24T16:29:19.104Z,93.80
2017-12-24T16:31:45.310Z,94.02
2017-12-24T16:34:11.103Z,93.82
2017-12-24T16:36:36.892Z,93.85
2017-12-24T16:39:02.751Z,93.57
2017-12-24T16:41:28.531Z,93.50
2017-12-24T16:43:54.516Z,93.45
2017-12-24T16:46:20.314Z,93.28
2017-12-24T16:48:46.090Z,93.06
2017-12-24T16:51:11.882Z,93.10
2017-12-24T16:53:37.655Z,93.04
2017-12-24T16:56:03.474Z,92.97
2017-12-24T16:58:29.286Z,92.66
2017-12-24T17:00:55.072Z,92.68
2017-12-24T17:03:20.860Z,92.88
2017-12-24T17:05:46.647Z,92.53
2017-12-24T17:08:12.475Z,92.77
2017-12-24T17:10:38.262Z,92.63
2017-12-24T17:13:04.047Z,91.97
2017-12-24T17:15:29.959Z,92.24
2017-12-24T17:17:55.730Z,92.38
2017-12-24T17:20:21.518Z,92.05
2017-12-24T17:22:47.334Z,92.33
2017-12-24T17:25:13.130Z,92.14
2017-12-24T17:27:38.899Z,92.30
2017-12-24T17:30:04.704Z,92.08
2017-12-24T17:32:30.471Z,91.84
2017-12-24T17:34:56.264Z,91.78
2017-12-24T17:37:22.417Z,92.22
2017-12-24T17:39:48.242Z,91.83
2017-12-24T17:42:14.023Z,91.23
2017-12-24T17:44:39.823Z,91.22
2017-12-24T17:47:05.894Z,91.37
2017-12-24T17:49:31.680Z,91.45
2017-12-24T17:51:57.467Z,91.23
2017-12-24T17:54:23.286Z,91.19
2017-12-24T17:56:49.071Z,91.06
2017-12-24T17:59:14.868Z,91.07
2017-12-24T18:01:40.665Z,91.32
2017-12-24T18:04:06.509Z,90.88
2017-12-24T18:06:32.290Z,90.87
2017-12-24T18:08:58.070Z,91.23
2017-12-24T18:11:23.864Z,90.76
2017-12-24T18:13:49.700Z,90.97
2017-12-24T18:16:15.495Z,91.16
2017-12-24T18:18:41.271Z,91.00
2017-12-24T18:21:07.324Z,90.74
2017-12-24T18:23:33.104Z,90.62
2017-12-24T18:25:58.875Z,90.45
2017-12-24T18:28:24.672Z,90.33
2017-12-24T18:30:50.533Z,90.53
2017-12-24T18:33:16.303Z,90.23
2017-12-24T18:35:42.087Z,90.21
2017-12-24T18:38:07.875Z,90.23
2017-12-24T18:40:33.656Z,90.25
2017-12-24T18:42:59.544Z,90.51
2017-12-24T18:45:25.339Z,90.39
2017-12-24T18:47:51.135Z,90.37
2017-12-24T18:50:17.166Z,90.26
2017-12-24T18:52:42.947Z,90.11
2017-12-24T18:55:08.729Z,90.30
2017-12-24T18:57:34.526Z,90.04
2017-12-24T19:00:00.303Z,90.09
2017-12-24T19:02:26.080Z,90.08
2017-12-24T19:04:51.863Z,89.91
2017-12-24T19:07:17.699Z,89.88
2017-12-24T19:09:43.704Z,89.84
2017-12-24T19:12:09.483Z,89.76
2017-12-24T19:14:35.255Z,89.74
2017-12-24T19:17:01.037Z,89.70
2017-12-24T19:19:26.819Z,89.72
2017-12-24T19:21:52.643Z,89.73
2017-12-24T19:24:18.433Z,89.93
2017-12-24T19:26:44.223Z,90.14
2017-12-24T19:29:10.145Z,90.46
2017-12-24T19:31:35.928Z,90.47
2017-12-24T19:34:01.719Z,91.43
2017-12-24T19:36:27.543Z,91.58
2017-12-24T19:38:53.319Z,91.85
2017-12-24T19:41:19.090Z,91.91
2017-12-24T19:46:17.372Z,91.52
2017-12-24T19:48:43.184Z,91.38
2017-12-24T19:51:08.987Z,90.87
2017-12-24T19:53:34.770Z,90.51
2017-12-24T19:56:00.847Z,90.21
2017-12-24T19:58:26.622Z,90.07
2017-12-24T20:00:52.407Z,90.07
2017-12-24T20:03:18.466Z,89.62
2017-12-24T20:05:44.238Z,89.73
2017-12-24T20:08:10.011Z,89.31
2017-12-24T20:10:35.821Z,88.75
2017-12-24T20:13:01.627Z,88.88
2017-12-24T20:15:27.400Z,88.84
2017-12-24T20:17:53.484Z,88.79
2017-12-24T20:20:19.284Z,88.92
2017-12-24T20:22:45.059Z,88.39
2017-12-24T20:25:10.867Z,88.31
2017-12-24T20:27:36.649Z,87.81
2017-12-24T20:30:02.477Z,87.84
2017-12-24T20:32:28.501Z,87.90
2017-12-24T20:34:54.279Z,87.49
2017-12-24T20:37:20.051Z,86.99
2017-12-24T20:39:46.163Z,86.81
2017-12-24T20:42:11.934Z,86.52
2017-12-24T20:44:37.711Z,86.95
2017-12-24T20:47:03.575Z,86.73
2017-12-24T20:49:29.371Z,87.39
2017-12-24T20:51:55.155Z,86.42
2017-12-24T20:54:21.042Z,86.31
2017-12-24T20:56:46.827Z,86.53
2017-12-24T20:59:12.619Z,86.68
2017-12-24T21:01:38.731Z,86.42
2017-12-24T21:04:04.533Z,86.46
2017-12-24T21:06:30.306Z,86.51
2017-12-24T21:08:56.096Z,86.45
2017-12-24T21:11:21.859Z,86.58
2017-12-24T21:13:54.989Z,86.66
2017-12-24T21:16:20.776Z,86.71
2017-12-24T21:18:46.566Z,86.53
2017-12-24T21:21:12.418Z,86.48
2017-12-24T21:23:38.219Z,86.44
2017-12-24T21:26:04.045Z,86.55
2017-12-24T21:28:30.075Z,86.37
2017-12-24T21:30:55.854Z,86.43
2017-12-24T21:33:21.639Z,86.45
2017-12-24T21:35:47.415Z,86.74
2017-12-24T21:38:13.211Z,86.67
2017-12-24T21:40:39.003Z,86.78
2017-12-24T21:43:04.807Z,87.12
2017-12-24T21:45:30.617Z,87.11
2017-12-24T21:47:56.401Z,87.00
2017-12-24T21:50:22.174Z,87.09
2017-12-24T21:52:48.000Z,87.29
2017-12-24T21:55:13.802Z,87.11
2017-12-24T21:57:39.599Z,87.49
2017-12-24T22:00:05.416Z,87.64
2017-12-24T22:02:31.211Z,87.69
2017-12-24T22:04:57.039Z,88.11
2017-12-24T22:07:22.814Z,88.13
2017-12-24T22:09:48.635Z,88.36
2017-12-24T22:12:14.443Z,88.38
2017-12-24T22:14:40.226Z,88.11
2017-12-24T22:17:06.003Z,88.44
2017-12-24T22:19:31.795Z,88.57
2017-12-24T22:21:57.593Z,88.53
2017-12-24T22:24:23.386Z,88.39
2017-12-24T22:26:49.186Z,88.34
2017-12-24T22:29:15.008Z,88.10
2017-12-24T22:31:40.804Z,87.80
2017-12-24T22:34:06.603Z,88.06
2017-12-24T22:36:33.259Z,87.91
2017-12-24T22:38:59.399Z,87.51
2017-12-24T22:41:25.190Z,87.66
2017-12-24T22:43:50.996Z,87.82
2017-12-24T22:46:16.990Z,87.31
2017-12-24T22:48:42.840Z,87.38
2017-12-24T22:51:08.930Z,87.25
2017-12-24T22:53:34.727Z,86.48
2017-12-24T22:56:00.516Z,86.56
2017-12-24T22:58:26.433Z,85.97
2017-12-24T23:00:52.279Z,86.02
2017-12-24T23:03:18.067Z,86.06
2017-12-24T23:05:44.114Z,85.68
2017-12-24T23:08:09.895Z,84.83
2017-12-24T23:10:35.683Z,84.67
2017-12-24T23:13:01.507Z,84.77
2017-12-24T23:15:27.326Z,84.56
2017-12-24T23:17:53.114Z,83.96
2017-12-24T23:20:19.354Z,83.94
2017-12-24T23:22:45.303Z,83.63
2017-12-24T23:25:11.156Z,83.62
2017-12-24T23:27:36.974Z,83.80
2017-12-24T23:30:02.767Z,83.92
2017-12-24T23:32:28.566Z,84.26
2017-12-24T23:34:54.374Z,84.50
2017-12-24T23:37:20.178Z,85.03
2017-12-24T23:39:46.032Z,85.56
2017-12-24T23:42:11.982Z,86.97
2017-12-24T23:44:37.791Z,88.13
2017-12-24T23:47:03.646Z,89.14
2017-12-24T23:49:29.644Z,89.46
2017-12-24T23:51:55.676Z,90.50
2017-12-24T23:54:21.566Z,91.57
2017-12-24T23:56:47.706Z,91.54
2017-12-24T23:59:13.639Z,91.56
